sensor_id;sensor_type;location;lat;lon;timestamp;P1;durP1;ratioP1;P2;durP2;ratioP2
6513;SDS011;3290;47.716;9.070;2024-01-06T00:02:05;39.50;;;22.77;;
6513;SDS011;3290;47.716;9.070;2024-01-06T00:04:30;34.13;;;18.47;;
6513;SDS011;3290;47.716;9.070;2024-01-06T00:06:56;30.37;;;17.13;;
6513;SDS011;3290;47.716;9.070;2024-01-06T00:09:21;33.30;;;19.13;;
6513;SDS011;3290;47.716;9.070;2024-01-06T00:11:46;34.40;;;18.07;;
6513;SDS011;3290;47.716;9.070;2024-01-06T00:14:12;28.17;;;17.80;;
6513;SDS011;3290;47.716;9.070;2024-01-06T00:16:37;29.07;;;16.77;;
6513;SDS011;3290;47.716;9.070;2024-01-06T00:19:02;29.30;;;17.13;;
6513;SDS011;3290;47.716;9.070;2024-01-06T00:21:28;27.27;;;15.97;;
6513;SDS011;3290;47.716;9.070;2024-01-06T00:23:53;25.07;;;15.33;;
6513;SDS011;3290;47.716;9.070;2024-01-06T00:26:20;27.90;;;16.90;;
6513;SDS011;3290;47.716;9.070;2024-01-06T00:28:46;26.27;;;15.57;;
6513;SDS011;3290;47.716;9.070;2024-01-06T00:31:14;25.53;;;15.47;;
6513;SDS011;3290;47.716;9.070;2024-01-06T00:33:41;21.80;;;14.50;;
6513;SDS011;3290;47.716;9.070;2024-01-06T00:36:06;24.23;;;13.37;;
6513;SDS011;3290;47.716;9.070;2024-01-06T00:38:32;23.27;;;14.23;;
6513;SDS011;3290;47.716;9.070;2024-01-06T00:40:57;24.83;;;14.20;;
6513;SDS011;3290;47.716;9.070;2024-01-06T00:43:23;30.07;;;14.97;;
6513;SDS011;3290;47.716;9.070;2024-01-06T00:45:48;26.03;;;14.97;;
6513;SDS011;3290;47.716;9.070;2024-01-06T00:48:14;27.27;;;15.03;;
6513;SDS011;3290;47.716;9.070;2024-01-06T00:50:39;22.00;;;14.00;;
6513;SDS011;3290;47.716;9.070;2024-01-06T00:53:04;23.50;;;14.33;;
6513;SDS011;3290;47.716;9.070;2024-01-06T00:55:30;22.03;;;13.53;;
6513;SDS011;3290;47.716;9.070;2024-01-06T00:57:55;26.20;;;14.80;;
6513;SDS011;3290;47.716;9.070;2024-01-06T01:00:21;25.50;;;14.80;;
6513;SDS011;3290;47.716;9.070;2024-01-06T01:02:47;28.53;;;16.00;;
6513;SDS011;3290;47.716;9.070;2024-01-06T01:05:13;28.90;;;16.40;;
6513;SDS011;3290;47.716;9.070;2024-01-06T01:07:38;20.63;;;13.80;;
6513;SDS011;3290;47.716;9.070;2024-01-06T01:10:03;21.97;;;12.97;;
6513;SDS011;3290;47.716;9.070;2024-01-06T01:12:30;25.67;;;13.70;;
6513;SDS011;3290;47.716;9.070;2024-01-06T01:14:56;25.30;;;13.90;;
6513;SDS011;3290;47.716;9.070;2024-01-06T01:17:21;25.47;;;13.93;;
6513;SDS011;3290;47.716;9.070;2024-01-06T01:19:46;24.20;;;15.00;;
6513;SDS011;3290;47.716;9.070;2024-01-06T01:22:12;31.30;;;16.10;;
6513;SDS011;3290;47.716;9.070;2024-01-06T01:24:37;23.60;;;12.80;;
6513;SDS011;3290;47.716;9.070;2024-01-06T01:27:03;21.07;;;13.20;;
6513;SDS011;3290;47.716;9.070;2024-01-06T01:29:29;29.27;;;13.73;;
6513;SDS011;3290;47.716;9.070;2024-01-06T01:31:54;36.43;;;16.07;;
6513;SDS011;3290;47.716;9.070;2024-01-06T01:34:19;26.33;;;14.17;;
6513;SDS011;3290;47.716;9.070;2024-01-06T01:36:45;32.87;;;14.30;;
6513;SDS011;3290;47.716;9.070;2024-01-06T01:39:10;24.87;;;12.57;;
6513;SDS011;3290;47.716;9.070;2024-01-06T01:41:36;16.47;;;10.70;;
6513;SDS011;3290;47.716;9.070;2024-01-06T01:44:01;19.33;;;11.13;;
6513;SDS011;3290;47.716;9.070;2024-01-06T01:46:27;18.23;;;9.77;;
6513;SDS011;3290;47.716;9.070;2024-01-06T01:48:54;12.00;;;8.63;;
6513;SDS011;3290;47.716;9.070;2024-01-06T01:51:20;26.27;;;13.40;;
6513;SDS011;3290;47.716;9.070;2024-01-06T01:53:46;25.33;;;13.23;;
6513;SDS011;3290;47.716;9.070;2024-01-06T01:56:12;20.20;;;11.40;;
6513;SDS011;3290;47.716;9.070;2024-01-06T01:58:37;18.90;;;10.70;;
6513;SDS011;3290;47.716;9.070;2024-01-06T02:01:03;17.77;;;10.83;;
6513;SDS011;3290;47.716;9.070;2024-01-06T02:03:29;22.73;;;13.73;;
6513;SDS011;3290;47.716;9.070;2024-01-06T02:05:55;18.47;;;10.97;;
6513;SDS011;3290;47.716;9.070;2024-01-06T02:08:20;17.40;;;10.40;;
6513;SDS011;3290;47.716;9.070;2024-01-06T02:10:46;16.80;;;10.50;;
6513;SDS011;3290;47.716;9.070;2024-01-06T02:13:11;18.77;;;11.43;;
6513;SDS011;3290;47.716;9.070;2024-01-06T02:15:37;17.80;;;10.60;;
6513;SDS011;3290;47.716;9.070;2024-01-06T02:18:03;20.77;;;12.03;;
6513;SDS011;3290;47.716;9.070;2024-01-06T02:20:29;17.60;;;11.40;;
6513;SDS011;3290;47.716;9.070;2024-01-06T02:22:56;20.27;;;11.13;;
6513;SDS011;3290;47.716;9.070;2024-01-06T02:25:22;19.83;;;12.10;;
6513;SDS011;3290;47.716;9.070;2024-01-06T02:27:47;19.13;;;11.43;;
6513;SDS011;3290;47.716;9.070;2024-01-06T02:30:13;19.33;;;11.60;;
6513;SDS011;3290;47.716;9.070;2024-01-06T02:32:38;18.30;;;10.30;;
6513;SDS011;3290;47.716;9.070;2024-01-06T02:35:03;18.47;;;10.30;;
6513;SDS011;3290;47.716;9.070;2024-01-06T02:37:29;17.87;;;9.63;;
6513;SDS011;3290;47.716;9.070;2024-01-06T02:39:54;15.10;;;8.80;;
6513;SDS011;3290;47.716;9.070;2024-01-06T02:42:19;12.63;;;7.97;;
6513;SDS011;3290;47.716;9.070;2024-01-06T02:44:45;10.80;;;8.00;;
6513;SDS011;3290;47.716;9.070;2024-01-06T02:47:10;13.80;;;7.20;;
6513;SDS011;3290;47.716;9.070;2024-01-06T02:49:36;9.53;;;6.77;;
6513;SDS011;3290;47.716;9.070;2024-01-06T02:52:01;10.80;;;6.83;;
6513;SDS011;3290;47.716;9.070;2024-01-06T02:54:27;13.73;;;6.27;;
6513;SDS011;3290;47.716;9.070;2024-01-06T02:56:52;10.30;;;5.57;;
6513;SDS011;3290;47.716;9.070;2024-01-06T02:59:17;13.40;;;5.07;;
6513;SDS011;3290;47.716;9.070;2024-01-06T03:01:43;9.33;;;4.77;;
6513;SDS011;3290;47.716;9.070;2024-01-06T03:04:08;7.57;;;3.93;;
6513;SDS011;3290;47.716;9.070;2024-01-06T03:06:33;5.50;;;3.27;;
6513;SDS011;3290;47.716;9.070;2024-01-06T03:08:59;8.87;;;3.00;;
6513;SDS011;3290;47.716;9.070;2024-01-06T03:11:24;9.83;;;3.37;;
6513;SDS011;3290;47.716;9.070;2024-01-06T03:13:50;3.60;;;2.47;;
6513;SDS011;3290;47.716;9.070;2024-01-06T03:16:15;5.00;;;2.47;;
6513;SDS011;3290;47.716;9.070;2024-01-06T03:18:40;2.80;;;1.93;;
6513;SDS011;3290;47.716;9.070;2024-01-06T03:21:15;4.30;;;2.30;;
6513;SDS011;3290;47.716;9.070;2024-01-06T03:23:42;9.90;;;2.60;;
6513;SDS011;3290;47.716;9.070;2024-01-06T03:26:08;4.30;;;2.07;;
6513;SDS011;3290;47.716;9.070;2024-01-06T03:28:33;4.27;;;2.30;;
6513;SDS011;3290;47.716;9.070;2024-01-06T03:30:58;4.43;;;1.93;;
6513;SDS011;3290;47.716;9.070;2024-01-06T03:33:23;7.60;;;2.20;;
6513;SDS011;3290;47.716;9.070;2024-01-06T03:35:49;4.00;;;1.73;;
6513;SDS011;3290;47.716;9.070;2024-01-06T03:38:14;2.20;;;1.70;;
6513;SDS011;3290;47.716;9.070;2024-01-06T03:40:39;3.37;;;1.70;;
6513;SDS011;3290;47.716;9.070;2024-01-06T03:43:05;3.47;;;1.77;;
6513;SDS011;3290;47.716;9.070;2024-01-06T03:45:30;7.33;;;2.37;;
6513;SDS011;3290;47.716;9.070;2024-01-06T03:47:55;2.80;;;2.13;;
6513;SDS011;3290;47.716;9.070;2024-01-06T03:50:21;4.63;;;1.70;;
6513;SDS011;3290;47.716;9.070;2024-01-06T03:52:46;3.50;;;2.10;;
6513;SDS011;3290;47.716;9.070;2024-01-06T03:55:13;4.50;;;1.63;;
6513;SDS011;3290;47.716;9.070;2024-01-06T03:57:39;3.00;;;2.07;;
6513;SDS011;3290;47.716;9.070;2024-01-06T04:00:04;6.20;;;2.80;;
6513;SDS011;3290;47.716;9.070;2024-01-06T04:02:30;4.80;;;2.00;;
6513;SDS011;3290;47.716;9.070;2024-01-06T04:04:55;3.07;;;2.00;;
6513;SDS011;3290;47.716;9.070;2024-01-06T04:07:21;3.90;;;2.40;;
6513;SDS011;3290;47.716;9.070;2024-01-06T04:09:46;6.10;;;2.50;;
6513;SDS011;3290;47.716;9.070;2024-01-06T04:12:11;5.70;;;2.50;;
6513;SDS011;3290;47.716;9.070;2024-01-06T04:14:37;2.90;;;2.20;;
6513;SDS011;3290;47.716;9.070;2024-01-06T04:17:02;3.03;;;2.03;;
6513;SDS011;3290;47.716;9.070;2024-01-06T04:19:27;4.77;;;2.77;;
6513;SDS011;3290;47.716;9.070;2024-01-06T04:21:53;3.40;;;2.70;;
6513;SDS011;3290;47.716;9.070;2024-01-06T04:24:19;2.80;;;2.30;;
6513;SDS011;3290;47.716;9.070;2024-01-06T04:26:44;2.40;;;2.20;;
6513;SDS011;3290;47.716;9.070;2024-01-06T04:29:11;9.13;;;2.53;;
6513;SDS011;3290;47.716;9.070;2024-01-06T04:31:37;6.03;;;2.50;;
6513;SDS011;3290;47.716;9.070;2024-01-06T04:34:02;8.17;;;2.70;;
6513;SDS011;3290;47.716;9.070;2024-01-06T04:36:28;10.53;;;2.90;;
6513;SDS011;3290;47.716;9.070;2024-01-06T04:38:54;8.43;;;2.77;;
6513;SDS011;3290;47.716;9.070;2024-01-06T04:41:19;5.57;;;3.10;;
6513;SDS011;3290;47.716;9.070;2024-01-06T04:43:44;4.67;;;2.63;;
6513;SDS011;3290;47.716;9.070;2024-01-06T04:46:10;4.13;;;3.03;;
6513;SDS011;3290;47.716;9.070;2024-01-06T04:48:35;8.77;;;3.60;;
6513;SDS011;3290;47.716;9.070;2024-01-06T04:51:00;6.03;;;3.20;;
6513;SDS011;3290;47.716;9.070;2024-01-06T04:53:28;9.67;;;3.43;;
6513;SDS011;3290;47.716;9.070;2024-01-06T04:55:53;6.07;;;3.47;;
6513;SDS011;3290;47.716;9.070;2024-01-06T04:58:19;8.13;;;3.33;;
6513;SDS011;3290;47.716;9.070;2024-01-06T05:00:44;6.03;;;2.60;;
6513;SDS011;3290;47.716;9.070;2024-01-06T05:03:10;3.77;;;2.70;;
6513;SDS011;3290;47.716;9.070;2024-01-06T05:05:35;9.13;;;3.10;;
6513;SDS011;3290;47.716;9.070;2024-01-06T05:08:00;16.03;;;3.37;;
6513;SDS011;3290;47.716;9.070;2024-01-06T05:10:26;3.40;;;2.80;;
6513;SDS011;3290;47.716;9.070;2024-01-06T05:12:52;7.27;;;2.93;;
6513;SDS011;3290;47.716;9.070;2024-01-06T05:15:17;4.10;;;2.60;;
6513;SDS011;3290;47.716;9.070;2024-01-06T05:17:42;2.70;;;1.97;;
6513;SDS011;3290;47.716;9.070;2024-01-06T05:20:08;3.57;;;2.03;;
6513;SDS011;3290;47.716;9.070;2024-01-06T05:22:34;5.43;;;1.80;;
6513;SDS011;3290;47.716;9.070;2024-01-06T05:24:59;6.37;;;2.10;;
6513;SDS011;3290;47.716;9.070;2024-01-06T05:27:24;2.60;;;2.00;;
6513;SDS011;3290;47.716;9.070;2024-01-06T05:29:50;2.80;;;2.20;;
6513;SDS011;3290;47.716;9.070;2024-01-06T05:32:16;6.67;;;2.57;;
6513;SDS011;3290;47.716;9.070;2024-01-06T05:34:42;3.70;;;1.60;;
6513;SDS011;3290;47.716;9.070;2024-01-06T05:37:09;3.67;;;1.93;;
6513;SDS011;3290;47.716;9.070;2024-01-06T05:39:34;2.93;;;1.63;;
6513;SDS011;3290;47.716;9.070;2024-01-06T05:42:03;5.20;;;1.80;;
6513;SDS011;3290;47.716;9.070;2024-01-06T05:44:28;2.83;;;1.77;;
6513;SDS011;3290;47.716;9.070;2024-01-06T05:46:54;2.00;;;1.60;;
6513;SDS011;3290;47.716;9.070;2024-01-06T05:49:19;4.43;;;2.23;;
6513;SDS011;3290;47.716;9.070;2024-01-06T05:51:45;7.27;;;2.10;;
6513;SDS011;3290;47.716;9.070;2024-01-06T05:54:11;6.03;;;1.67;;
6513;SDS011;3290;47.716;9.070;2024-01-06T05:56:36;4.80;;;2.33;;
6513;SDS011;3290;47.716;9.070;2024-01-06T05:59:01;8.33;;;2.07;;
6513;SDS011;3290;47.716;9.070;2024-01-06T06:01:28;2.73;;;1.53;;
6513;SDS011;3290;47.716;9.070;2024-01-06T06:03:53;5.43;;;1.93;;
6513;SDS011;3290;47.716;9.070;2024-01-06T06:06:18;6.70;;;1.83;;
6513;SDS011;3290;47.716;9.070;2024-01-06T06:08:44;5.90;;;2.23;;
6513;SDS011;3290;47.716;9.070;2024-01-06T06:11:10;14.63;;;3.60;;
6513;SDS011;3290;47.716;9.070;2024-01-06T06:13:39;2.90;;;2.30;;
6513;SDS011;3290;47.716;9.070;2024-01-06T06:16:11;6.27;;;3.40;;
6513;SDS011;3290;47.716;9.070;2024-01-06T06:18:39;5.00;;;2.33;;
6513;SDS011;3290;47.716;9.070;2024-01-06T06:21:06;5.73;;;2.43;;
6513;SDS011;3290;47.716;9.070;2024-01-06T06:23:32;5.23;;;2.83;;
6513;SDS011;3290;47.716;9.070;2024-01-06T06:25:58;4.40;;;2.40;;
6513;SDS011;3290;47.716;9.070;2024-01-06T06:28:24;10.07;;;1.77;;
6513;SDS011;3290;47.716;9.070;2024-01-06T06:30:50;5.33;;;2.37;;
6513;SDS011;3290;47.716;9.070;2024-01-06T06:33:15;5.73;;;2.00;;
6513;SDS011;3290;47.716;9.070;2024-01-06T06:35:42;2.73;;;2.20;;
6513;SDS011;3290;47.716;9.070;2024-01-06T06:38:07;2.43;;;2.00;;
6513;SDS011;3290;47.716;9.070;2024-01-06T06:40:32;3.37;;;2.30;;
6513;SDS011;3290;47.716;9.070;2024-01-06T06:42:58;3.50;;;2.40;;
6513;SDS011;3290;47.716;9.070;2024-01-06T06:45:23;7.57;;;2.60;;
6513;SDS011;3290;47.716;9.070;2024-01-06T06:47:49;9.63;;;3.00;;
6513;SDS011;3290;47.716;9.070;2024-01-06T06:50:15;4.20;;;3.50;;
6513;SDS011;3290;47.716;9.070;2024-01-06T06:52:41;9.13;;;4.43;;
6513;SDS011;3290;47.716;9.070;2024-01-06T06:55:07;3.60;;;3.03;;
6513;SDS011;3290;47.716;9.070;2024-01-06T06:57:33;3.83;;;3.27;;
6513;SDS011;3290;47.716;9.070;2024-01-06T06:59:58;6.40;;;4.03;;
6513;SDS011;3290;47.716;9.070;2024-01-06T07:02:25;6.87;;;3.20;;
6513;SDS011;3290;47.716;9.070;2024-01-06T07:04:50;5.67;;;3.67;;
6513;SDS011;3290;47.716;9.070;2024-01-06T07:07:16;7.13;;;3.03;;
6513;SDS011;3290;47.716;9.070;2024-01-06T07:09:41;8.67;;;3.70;;
6513;SDS011;3290;47.716;9.070;2024-01-06T07:12:07;7.80;;;4.60;;
6513;SDS011;3290;47.716;9.070;2024-01-06T07:14:33;9.13;;;5.43;;
6513;SDS011;3290;47.716;9.070;2024-01-06T07:16:58;8.17;;;4.10;;
6513;SDS011;3290;47.716;9.070;2024-01-06T07:19:24;3.93;;;2.80;;
6513;SDS011;3290;47.716;9.070;2024-01-06T07:21:49;3.17;;;2.70;;
6513;SDS011;3290;47.716;9.070;2024-01-06T07:24:14;4.63;;;3.20;;
6513;SDS011;3290;47.716;9.070;2024-01-06T07:26:41;5.17;;;2.90;;
6513;SDS011;3290;47.716;9.070;2024-01-06T07:29:06;5.80;;;3.23;;
6513;SDS011;3290;47.716;9.070;2024-01-06T07:31:33;5.97;;;3.37;;
6513;SDS011;3290;47.716;9.070;2024-01-06T07:33:59;6.37;;;3.00;;
6513;SDS011;3290;47.716;9.070;2024-01-06T07:36:24;6.40;;;2.40;;
6513;SDS011;3290;47.716;9.070;2024-01-06T07:38:50;4.90;;;3.00;;
6513;SDS011;3290;47.716;9.070;2024-01-06T07:41:16;7.23;;;2.80;;
6513;SDS011;3290;47.716;9.070;2024-01-06T07:43:42;10.60;;;5.40;;
6513;SDS011;3290;47.716;9.070;2024-01-06T07:46:08;9.73;;;4.30;;
6513;SDS011;3290;47.716;9.070;2024-01-06T07:48:34;4.70;;;2.60;;
6513;SDS011;3290;47.716;9.070;2024-01-06T07:51:00;5.63;;;2.73;;
6513;SDS011;3290;47.716;9.070;2024-01-06T07:53:26;10.37;;;3.70;;
6513;SDS011;3290;47.716;9.070;2024-01-06T07:55:51;12.63;;;5.67;;
6513;SDS011;3290;47.716;9.070;2024-01-06T07:58:17;13.97;;;7.70;;
6513;SDS011;3290;47.716;9.070;2024-01-06T08:00:42;11.67;;;6.57;;
6513;SDS011;3290;47.716;9.070;2024-01-06T08:03:07;7.80;;;5.97;;
6513;SDS011;3290;47.716;9.070;2024-01-06T08:05:33;7.70;;;3.90;;
6513;SDS011;3290;47.716;9.070;2024-01-06T08:07:58;6.40;;;4.83;;
6513;SDS011;3290;47.716;9.070;2024-01-06T08:10:23;11.00;;;6.40;;
6513;SDS011;3290;47.716;9.070;2024-01-06T08:12:49;9.30;;;4.10;;
6513;SDS011;3290;47.716;9.070;2024-01-06T08:15:14;6.90;;;3.30;;
6513;SDS011;3290;47.716;9.070;2024-01-06T08:17:40;10.47;;;7.40;;
6513;SDS011;3290;47.716;9.070;2024-01-06T08:20:06;9.50;;;6.73;;
6513;SDS011;3290;47.716;9.070;2024-01-06T08:22:33;6.93;;;5.60;;
6513;SDS011;3290;47.716;9.070;2024-01-06T08:24:59;6.93;;;5.03;;
6513;SDS011;3290;47.716;9.070;2024-01-06T08:27:24;11.50;;;6.20;;
6513;SDS011;3290;47.716;9.070;2024-01-06T08:29:50;6.73;;;5.07;;
6513;SDS011;3290;47.716;9.070;2024-01-06T08:32:15;7.07;;;5.13;;
6513;SDS011;3290;47.716;9.070;2024-01-06T08:34:41;7.20;;;5.53;;
6513;SDS011;3290;47.716;9.070;2024-01-06T08:37:07;10.10;;;7.77;;
6513;SDS011;3290;47.716;9.070;2024-01-06T08:39:32;8.00;;;6.17;;
6513;SDS011;3290;47.716;9.070;2024-01-06T08:41:57;6.27;;;5.03;;
6513;SDS011;3290;47.716;9.070;2024-01-06T08:44:23;6.93;;;3.50;;
6513;SDS011;3290;47.716;9.070;2024-01-06T08:46:49;7.57;;;4.20;;
6513;SDS011;3290;47.716;9.070;2024-01-06T08:49:15;12.33;;;5.73;;
6513;SDS011;3290;47.716;9.070;2024-01-06T08:51:40;7.27;;;3.17;;
6513;SDS011;3290;47.716;9.070;2024-01-06T08:54:06;4.10;;;2.83;;
6513;SDS011;3290;47.716;9.070;2024-01-06T08:56:34;4.10;;;2.77;;
6513;SDS011;3290;47.716;9.070;2024-01-06T08:59:00;4.90;;;2.90;;
6513;SDS011;3290;47.716;9.070;2024-01-06T09:01:25;12.10;;;3.10;;
6513;SDS011;3290;47.716;9.070;2024-01-06T09:03:50;7.97;;;3.07;;
6513;SDS011;3290;47.716;9.070;2024-01-06T09:06:16;5.70;;;3.53;;
6513;SDS011;3290;47.716;9.070;2024-01-06T09:08:41;6.40;;;3.87;;
6513;SDS011;3290;47.716;9.070;2024-01-06T09:11:07;7.03;;;4.07;;
6513;SDS011;3290;47.716;9.070;2024-01-06T09:13:32;11.87;;;6.33;;
6513;SDS011;3290;47.716;9.070;2024-01-06T09:15:58;88.63;;;39.27;;
6513;SDS011;3290;47.716;9.070;2024-01-06T09:18:25;27.63;;;15.40;;
6513;SDS011;3290;47.716;9.070;2024-01-06T09:20:51;30.97;;;17.47;;
6513;SDS011;3290;47.716;9.070;2024-01-06T09:23:16;11.37;;;5.40;;
6513;SDS011;3290;47.716;9.070;2024-01-06T09:25:42;24.60;;;13.03;;
6513;SDS011;3290;47.716;9.070;2024-01-06T09:28:07;12.17;;;3.77;;
6513;SDS011;3290;47.716;9.070;2024-01-06T09:30:33;7.17;;;4.23;;
6513;SDS011;3290;47.716;9.070;2024-01-06T09:32:58;10.30;;;7.17;;
6513;SDS011;3290;47.716;9.070;2024-01-06T09:35:23;22.73;;;10.30;;
6513;SDS011;3290;47.716;9.070;2024-01-06T09:37:49;6.80;;;4.30;;
6513;SDS011;3290;47.716;9.070;2024-01-06T09:40:14;6.37;;;3.50;;
6513;SDS011;3290;47.716;9.070;2024-01-06T09:42:48;7.67;;;5.00;;
6513;SDS011;3290;47.716;9.070;2024-01-06T09:45:18;5.03;;;3.53;;
6513;SDS011;3290;47.716;9.070;2024-01-06T09:47:47;8.53;;;4.60;;
6513;SDS011;3290;47.716;9.070;2024-01-06T09:50:14;11.17;;;4.00;;
6513;SDS011;3290;47.716;9.070;2024-01-06T09:52:45;6.83;;;3.80;;
6513;SDS011;3290;47.716;9.070;2024-01-06T09:55:17;7.03;;;3.50;;
6513;SDS011;3290;47.716;9.070;2024-01-06T09:57:45;8.37;;;3.57;;
6513;SDS011;3290;47.716;9.070;2024-01-06T10:00:10;4.53;;;2.50;;
6513;SDS011;3290;47.716;9.070;2024-01-06T10:02:36;4.90;;;3.17;;
6513;SDS011;3290;47.716;9.070;2024-01-06T10:05:01;5.97;;;3.23;;
6513;SDS011;3290;47.716;9.070;2024-01-06T10:07:27;11.93;;;3.90;;
6513;SDS011;3290;47.716;9.070;2024-01-06T10:09:56;5.97;;;3.80;;
6513;SDS011;3290;47.716;9.070;2024-01-06T10:12:23;4.80;;;3.33;;
6513;SDS011;3290;47.716;9.070;2024-01-06T10:14:50;3.57;;;2.90;;
6513;SDS011;3290;47.716;9.070;2024-01-06T10:17:15;4.70;;;3.03;;
6513;SDS011;3290;47.716;9.070;2024-01-06T10:19:41;6.40;;;3.70;;
6513;SDS011;3290;47.716;9.070;2024-01-06T10:22:10;12.43;;;5.17;;
6513;SDS011;3290;47.716;9.070;2024-01-06T10:24:36;6.10;;;4.60;;
6513;SDS011;3290;47.716;9.070;2024-01-06T10:27:02;5.97;;;3.83;;
6513;SDS011;3290;47.716;9.070;2024-01-06T10:29:28;8.07;;;4.10;;
6513;SDS011;3290;47.716;9.070;2024-01-06T10:31:54;21.97;;;8.47;;
6513;SDS011;3290;47.716;9.070;2024-01-06T10:34:20;39.77;;;15.17;;
6513;SDS011;3290;47.716;9.070;2024-01-06T10:36:45;11.43;;;7.37;;
6513;SDS011;3290;47.716;9.070;2024-01-06T10:39:12;10.83;;;5.90;;
6513;SDS011;3290;47.716;9.070;2024-01-06T10:41:40;13.90;;;6.70;;
6513;SDS011;3290;47.716;9.070;2024-01-06T10:44:07;26.77;;;11.47;;
6513;SDS011;3290;47.716;9.070;2024-01-06T10:46:34;16.97;;;5.70;;
6513;SDS011;3290;47.716;9.070;2024-01-06T10:49:00;8.23;;;4.73;;
6513;SDS011;3290;47.716;9.070;2024-01-06T10:51:27;6.17;;;4.17;;
6513;SDS011;3290;47.716;9.070;2024-01-06T10:53:55;6.90;;;4.53;;
6513;SDS011;3290;47.716;9.070;2024-01-06T10:56:23;6.53;;;3.80;;
6513;SDS011;3290;47.716;9.070;2024-01-06T10:58:50;8.30;;;4.37;;
6513;SDS011;3290;47.716;9.070;2024-01-06T11:01:21;12.93;;;4.80;;
6513;SDS011;3290;47.716;9.070;2024-01-06T11:03:47;5.20;;;3.40;;
6513;SDS011;3290;47.716;9.070;2024-01-06T11:06:17;6.40;;;3.93;;
6513;SDS011;3290;47.716;9.070;2024-01-06T11:08:46;9.17;;;4.50;;
6513;SDS011;3290;47.716;9.070;2024-01-06T11:11:17;5.73;;;4.03;;
6513;SDS011;3290;47.716;9.070;2024-01-06T11:13:44;7.43;;;3.57;;
6513;SDS011;3290;47.716;9.070;2024-01-06T11:16:34;6.30;;;4.07;;
6513;SDS011;3290;47.716;9.070;2024-01-06T11:19:02;6.80;;;3.07;;
6513;SDS011;3290;47.716;9.070;2024-01-06T11:21:29;8.80;;;4.00;;
6513;SDS011;3290;47.716;9.070;2024-01-06T11:26:51;8.97;;;3.63;;
6513;SDS011;3290;47.716;9.070;2024-01-06T11:29:18;7.10;;;3.20;;
6513;SDS011;3290;47.716;9.070;2024-01-06T11:32:17;6.80;;;3.63;;
6513;SDS011;3290;47.716;9.070;2024-01-06T11:34:52;7.90;;;3.10;;
6513;SDS011;3290;47.716;9.070;2024-01-06T11:37:24;6.13;;;3.63;;
6513;SDS011;3290;47.716;9.070;2024-01-06T11:39:51;3.33;;;2.53;;
6513;SDS011;3290;47.716;9.070;2024-01-06T11:42:18;6.00;;;2.77;;
6513;SDS011;3290;47.716;9.070;2024-01-06T11:44:44;8.13;;;3.90;;
6513;SDS011;3290;47.716;9.070;2024-01-06T11:47:14;6.73;;;3.53;;
6513;SDS011;3290;47.716;9.070;2024-01-06T11:49:43;9.77;;;3.77;;
6513;SDS011;3290;47.716;9.070;2024-01-06T11:52:10;5.70;;;2.50;;
6513;SDS011;3290;47.716;9.070;2024-01-06T11:54:36;7.07;;;3.30;;
6513;SDS011;3290;47.716;9.070;2024-01-06T11:57:03;5.80;;;2.97;;
6513;SDS011;3290;47.716;9.070;2024-01-06T11:59:28;3.80;;;2.70;;
6513;SDS011;3290;47.716;9.070;2024-01-06T12:01:54;5.60;;;2.60;;
6513;SDS011;3290;47.716;9.070;2024-01-06T12:04:19;3.90;;;2.00;;
6513;SDS011;3290;47.716;9.070;2024-01-06T12:06:47;3.40;;;2.40;;
6513;SDS011;3290;47.716;9.070;2024-01-06T12:09:12;3.87;;;2.33;;
6513;SDS011;3290;47.716;9.070;2024-01-06T12:11:41;2.60;;;2.10;;
6513;SDS011;3290;47.716;9.070;2024-01-06T12:14:09;6.13;;;2.50;;
6513;SDS011;3290;47.716;9.070;2024-01-06T12:16:35;2.20;;;1.90;;
6513;SDS011;3290;47.716;9.070;2024-01-06T12:19:01;2.83;;;2.50;;
6513;SDS011;3290;47.716;9.070;2024-01-06T12:21:28;3.70;;;2.70;;
6513;SDS011;3290;47.716;9.070;2024-01-06T12:23:54;2.60;;;2.23;;
6513;SDS011;3290;47.716;9.070;2024-01-06T12:26:36;6.53;;;3.10;;
6513;SDS011;3290;47.716;9.070;2024-01-06T12:29:03;8.67;;;3.10;;
6513;SDS011;3290;47.716;9.070;2024-01-06T12:31:29;8.00;;;2.30;;
6513;SDS011;3290;47.716;9.070;2024-01-06T12:33:55;3.90;;;2.50;;
6513;SDS011;3290;47.716;9.070;2024-01-06T12:36:21;10.03;;;2.40;;
6513;SDS011;3290;47.716;9.070;2024-01-06T12:38:46;12.93;;;3.57;;
6513;SDS011;3290;47.716;9.070;2024-01-06T12:41:12;7.30;;;2.30;;
6513;SDS011;3290;47.716;9.070;2024-01-06T12:43:37;4.80;;;2.30;;
6513;SDS011;3290;47.716;9.070;2024-01-06T12:46:03;13.47;;;2.90;;
6513;SDS011;3290;47.716;9.070;2024-01-06T12:48:28;7.07;;;2.73;;
6513;SDS011;3290;47.716;9.070;2024-01-06T12:50:54;6.30;;;2.23;;
6513;SDS011;3290;47.716;9.070;2024-01-06T12:53:20;4.60;;;2.40;;
6513;SDS011;3290;47.716;9.070;2024-01-06T12:55:45;5.17;;;2.30;;
6513;SDS011;3290;47.716;9.070;2024-01-06T12:58:10;4.20;;;2.33;;
6513;SDS011;3290;47.716;9.070;2024-01-06T13:00:36;11.67;;;2.70;;
6513;SDS011;3290;47.716;9.070;2024-01-06T13:03:01;26.43;;;13.67;;
6513;SDS011;3290;47.716;9.070;2024-01-06T13:05:27;8.73;;;5.93;;
6513;SDS011;3290;47.716;9.070;2024-01-06T13:07:52;5.27;;;2.50;;
6513;SDS011;3290;47.716;9.070;2024-01-06T13:10:18;5.33;;;2.83;;
6513;SDS011;3290;47.716;9.070;2024-01-06T13:12:44;5.97;;;2.57;;
6513;SDS011;3290;47.716;9.070;2024-01-06T13:15:09;5.03;;;2.77;;
6513;SDS011;3290;47.716;9.070;2024-01-06T13:17:36;7.63;;;3.00;;
6513;SDS011;3290;47.716;9.070;2024-01-06T13:20:02;35.53;;;11.67;;
6513;SDS011;3290;47.716;9.070;2024-01-06T13:22:27;6.73;;;3.27;;
6513;SDS011;3290;47.716;9.070;2024-01-06T13:24:53;4.93;;;3.07;;
6513;SDS011;3290;47.716;9.070;2024-01-06T13:27:19;5.50;;;2.60;;
6513;SDS011;3290;47.716;9.070;2024-01-06T13:29:44;4.37;;;2.53;;
6513;SDS011;3290;47.716;9.070;2024-01-06T13:32:10;8.80;;;2.80;;
6513;SDS011;3290;47.716;9.070;2024-01-06T13:34:36;3.00;;;2.30;;
6513;SDS011;3290;47.716;9.070;2024-01-06T13:37:01;8.27;;;2.30;;
6513;SDS011;3290;47.716;9.070;2024-01-06T13:39:27;2.60;;;1.83;;
6513;SDS011;3290;47.716;9.070;2024-01-06T13:41:52;4.93;;;2.43;;
6513;SDS011;3290;47.716;9.070;2024-01-06T13:44:17;6.63;;;2.80;;
6513;SDS011;3290;47.716;9.070;2024-01-06T13:46:43;13.40;;;3.77;;
6513;SDS011;3290;47.716;9.070;2024-01-06T13:49:12;7.53;;;2.67;;
6513;SDS011;3290;47.716;9.070;2024-01-06T13:51:41;4.90;;;2.97;;
6513;SDS011;3290;47.716;9.070;2024-01-06T13:54:06;5.40;;;2.60;;
6513;SDS011;3290;47.716;9.070;2024-01-06T13:56:32;8.03;;;2.33;;
6513;SDS011;3290;47.716;9.070;2024-01-06T13:58:58;8.57;;;3.60;;
6513;SDS011;3290;47.716;9.070;2024-01-06T14:01:23;4.23;;;2.80;;
6513;SDS011;3290;47.716;9.070;2024-01-06T14:03:49;6.10;;;2.90;;
6513;SDS011;3290;47.716;9.070;2024-01-06T14:06:15;5.07;;;2.90;;
6513;SDS011;3290;47.716;9.070;2024-01-06T14:08:42;7.80;;;2.80;;
6513;SDS011;3290;47.716;9.070;2024-01-06T14:11:08;7.13;;;2.97;;
6513;SDS011;3290;47.716;9.070;2024-01-06T14:13:34;5.80;;;3.00;;
6513;SDS011;3290;47.716;9.070;2024-01-06T14:15:59;10.20;;;5.23;;
6513;SDS011;3290;47.716;9.070;2024-01-06T14:18:24;23.33;;;8.00;;
6513;SDS011;3290;47.716;9.070;2024-01-06T14:20:50;56.70;;;18.40;;
6513;SDS011;3290;47.716;9.070;2024-01-06T14:23:16;75.77;;;17.40;;
6513;SDS011;3290;47.716;9.070;2024-01-06T14:25:41;72.90;;;20.80;;
6513;SDS011;3290;47.716;9.070;2024-01-06T14:28:07;24.13;;;6.33;;
6513;SDS011;3290;47.716;9.070;2024-01-06T14:30:32;27.47;;;7.97;;
6513;SDS011;3290;47.716;9.070;2024-01-06T14:32:58;15.37;;;5.10;;
6513;SDS011;3290;47.716;9.070;2024-01-06T14:35:23;11.77;;;6.27;;
6513;SDS011;3290;47.716;9.070;2024-01-06T14:37:48;68.23;;;22.60;;
6513;SDS011;3290;47.716;9.070;2024-01-06T14:40:14;63.67;;;23.63;;
6513;SDS011;3290;47.716;9.070;2024-01-06T14:42:40;60.73;;;21.80;;
6513;SDS011;3290;47.716;9.070;2024-01-06T14:45:05;52.70;;;17.30;;
6513;SDS011;3290;47.716;9.070;2024-01-06T14:47:33;43.37;;;13.07;;
6513;SDS011;3290;47.716;9.070;2024-01-06T14:49:58;34.63;;;14.30;;
6513;SDS011;3290;47.716;9.070;2024-01-06T14:52:23;66.53;;;24.37;;
6513;SDS011;3290;47.716;9.070;2024-01-06T14:54:49;31.20;;;12.20;;
6513;SDS011;3290;47.716;9.070;2024-01-06T14:57:14;45.30;;;14.60;;
6513;SDS011;3290;47.716;9.070;2024-01-06T14:59:40;17.90;;;8.00;;
6513;SDS011;3290;47.716;9.070;2024-01-06T15:02:06;6.57;;;4.50;;
6513;SDS011;3290;47.716;9.070;2024-01-06T15:04:32;6.37;;;4.10;;